Aeroporto :
LOGIN :

Iscrizione | Disclaimer

   EN    FR    IT 

 










Sommario :    VFR   VFR Marginale   IFR   IFR Intensivo   IFR Molto Intensivo
Visibilità : 
Base nubi : 
>= 8 km
>= 3000ft
5 / 8 km
1000 / 3000 ft
1500m / 5 km
500 / 1000 ft
800 / 1500m
200 / 500 ft
< 800m
< 200 ft
Simboli :   Temporali  Nebbia  Neve Forte  Precipitazioni Forti  Vento > 20 kt
SIGMETs :   Varie  Temporali  Ghiacco  Turbolenza  Onda orograficha  Ceneri Vulcaniche






- Altitudine del aeroporto : 124 ft
- Codice IATA : NHT


EGWU - RAF Northolt

ULTIMO METAR :
  • 111850Z 25010KT CAVOK 06/02 Q1001 NOSIG RMK BLU BLU

METARs OBSOLETI :
  • 111822Z 24007KT CAVOK 06/02 Q1002 NOSIG RMK BLU BLU
  • 111750Z 25007KT 9999 FEW042 07/02 Q1001 NOSIG RMK BLU BLU
  • 111650Z 28012KT 9999 FEW036 08/02 Q1001 NOSIG

TAF AMD TAF EGWU
Valido dal 11 a 18 ore il 12 a 12 ore UTC


111730Z 1118/1212 27010KT 9999 FEW035
TEMPO 1210/1212 26018G28KT
PROB40
TEMPO 1211/1212 7000 RA BKN014



MetMap, La meteo Aeronautica in un colpo d'occhio ! - Copyright ORBIFLY Dicembre 2007 - Disclaimer

ORBIFLY MET'MAP TEAM :

Programmazione e sviluppo : Alexandra Zaïnal
Concezione e sviluppo : Baudouin d'Aumeries
Co-Programmazione e sviluppo : Marc-Olivier Méhu
Supporto tecnico e logistico : Manuel Goepfert
Aiuto per la traduzione : Arnaldo La Scala

Contatto : metmap@orbifly.com




FONTI E CREDITI :

   NOAA